Time;durP1;ratioP1;P1;durP2;ratioP2;P2;SDS_P1;SDS_P2;PMS_P1;PMS_P2;Temp;Humidity;BMP_temperature;BMP_pressure;BME280_temperature;BME280_humidity;BME280_pressure;Samples;Min_cycle;Max_cycle;Signal;HPM_P1;HPM_P2
2024/03/15 00:00:09;;;;;;;9.48;2.92;;;11.90;97.20;;;;;;5088340;28;20020;-66
2024/03/15 00:02:34;;;;;;;10.68;2.85;;;11.70;98.20;;;;;;5088433;28;20077;-66
2024/03/15 00:05:00;;;;;;;8.23;2.70;;;11.60;98.40;;;;;;5087961;28;20032;-68
2024/03/15 00:07:26;;;;;;;10.75;3.13;;;11.60;98.50;;;;;;5088212;28;20032;-66
2024/03/15 00:09:52;;;;;;;14.27;3.03;;;11.80;97.00;;;;;;5088309;28;20059;-65
2024/03/15 00:12:17;;;;;;;7.63;2.70;;;11.80;96.90;;;;;;5088184;28;20828;-67
2024/03/15 00:14:43;;;;;;;7.23;3.10;;;11.90;96.20;;;;;;5087971;28;20502;-68
2024/03/15 00:17:12;;;;;;;7.75;2.65;;;11.80;96.30;;;;;;5081988;28;20051;-66
2024/03/15 00:19:38;;;;;;;11.00;3.13;;;11.80;96.20;;;;;;5074978;28;20086;-66
2024/03/15 00:22:04;;;;;;;8.95;2.92;;;11.90;96.40;;;;;;5073428;28;20086;-66
2024/03/15 00:24:30;;;;;;;7.27;2.67;;;11.80;95.90;;;;;;5067531;28;20555;-65
2024/03/15 00:26:55;;;;;;;7.00;2.53;;;11.80;96.20;;;;;;5067755;28;20392;-67
2024/03/15 00:29:21;;;;;;;7.80;2.80;;;12.00;94.70;;;;;;5068558;28;20468;-66
2024/03/15 00:31:47;;;;;;;6.93;2.75;;;12.00;94.50;;;;;;5068137;28;20115;-65
2024/03/15 00:34:14;;;;;;;5.63;2.08;;;12.10;93.80;;;;;;5068177;28;20064;-65
2024/03/15 00:36:41;;;;;;;8.70;2.92;;;12.00;93.50;;;;;;5067330;28;20567;-66
2024/03/15 00:39:07;;;;;;;6.85;2.58;;;12.00;93.50;;;;;;5067436;28;20500;-66
2024/03/15 00:41:33;;;;;;;8.20;2.50;;;11.80;94.10;;;;;;5067176;28;20437;-65
2024/03/15 00:43:58;;;;;;;9.33;2.43;;;12.00;92.50;;;;;;5066963;28;20063;-66
2024/03/15 00:46:24;;;;;;;7.33;2.53;;;11.90;92.00;;;;;;5066733;28;20028;-66
2024/03/15 00:48:53;;;;;;;5.30;2.00;;;11.90;92.60;;;;;;5068199;28;20024;-65
2024/03/15 00:51:19;;;;;;;5.68;2.17;;;11.70;92.50;;;;;;5067806;28;20028;-66
2024/03/15 00:53:44;;;;;;;10.85;2.00;;;11.80;92.20;;;;;;5078836;28;20395;-65
2024/03/15 00:56:10;;;;;;;10.60;2.13;;;11.70;92.60;;;;;;5087689;28;20028;-65
2024/03/15 00:58:36;;;;;;;7.83;2.10;;;11.80;91.80;;;;;;5087054;28;20492;-65
2024/03/15 01:01:04;;;;;;;7.88;2.28;;;11.80;91.50;;;;;;5087447;28;20480;-65
2024/03/15 01:03:31;;;;;;;8.82;2.38;;;11.70;91.90;;;;;;5087590;28;20032;-66
2024/03/15 01:05:56;;;;;;;8.25;1.80;;;11.80;91.70;;;;;;5087909;28;20036;-71
2024/03/15 01:08:22;;;;;;;5.53;2.07;;;11.70;92.10;;;;;;5088108;28;20442;-66
2024/03/15 01:10:48;;;;;;;9.43;1.98;;;11.90;90.60;;;;;;5087825;28;20052;-65
2024/03/15 01:13:14;;;;;;;6.95;2.30;;;11.80;90.90;;;;;;5087616;28;20040;-70
2024/03/15 01:15:42;;;;;;;6.65;2.30;;;11.80;91.20;;;;;;5087553;28;20024;-65
2024/03/15 01:18:08;;;;;;;10.48;1.92;;;11.90;90.60;;;;;;5087041;28;20055;-66
2024/03/15 01:20:34;;;;;;;5.28;2.33;;;12.00;90.20;;;;;;5087002;28;20016;-65
2024/03/15 01:23:00;;;;;;;3.65;1.80;;;11.80;91.40;;;;;;5087090;28;20082;-65
2024/03/15 01:25:29;;;;;;;5.07;1.80;;;11.70;91.20;;;;;;5087537;28;20048;-65
2024/03/15 01:27:57;;;;;;;4.43;1.70;;;11.60;92.00;;;;;;5077835;28;20086;-65
2024/03/15 01:30:23;;;;;;;10.50;2.03;;;11.60;92.80;;;;;;5076790;28;20027;-65
2024/03/15 01:32:49;;;;;;;7.32;1.80;;;11.60;92.00;;;;;;5068813;28;20068;-66
2024/03/15 01:35:16;;;;;;;5.93;2.15;;;11.70;91.70;;;;;;5066279;28;20067;-66
2024/03/15 01:37:42;;;;;;;7.22;2.22;;;11.90;90.70;;;;;;5066814;28;20075;-65
2024/03/15 01:40:09;;;;;;;5.40;1.85;;;11.90;91.00;;;;;;5066624;28;20017;-65
2024/03/15 01:42:35;;;;;;;;;;;11.80;90.90;;;;;;5066982;28;20055;-65
2024/03/15 01:45:01;;;;;;;2.83;1.48;;;11.90;90.80;;;;;;5066409;28;20033;-65
2024/03/15 01:47:28;;;;;;;3.30;1.60;;;12.00;90.00;;;;;;5066843;28;20147;-65
2024/03/15 01:49:55;;;;;;;5.40;2.10;;;11.90;90.20;;;;;;5066602;28;20037;-65
2024/03/15 01:52:21;;;;;;;8.07;2.47;;;11.80;90.80;;;;;;5079133;28;20499;-65
2024/03/15 01:54:48;;;;;;;5.85;1.77;;;11.70;90.80;;;;;;5086693;28;20028;-65
2024/03/15 01:57:15;;;;;;;5.40;2.13;;;11.80;90.20;;;;;;5086176;28;20040;-66
2024/03/15 01:59:41;;;;;;;2.97;1.50;;;11.90;90.30;;;;;;5086413;28;20028;-65
2024/03/15 02:02:09;;;;;;;;;;;11.70;90.70;;;;;;5087624;28;20074;-65
2024/03/15 02:04:35;;;;;;;7.72;1.20;;;11.60;91.30;;;;;;5087280;28;19908;-68
2024/03/15 02:07:01;;;;;;;8.85;2.53;;;11.70;90.50;;;;;;5087321;28;20032;-65
2024/03/15 02:09:30;;;;;;;3.97;1.37;;;11.60;90.40;;;;;;5087465;28;20036;-73
2024/03/15 02:11:56;;;;;;;7.47;1.73;;;11.60;90.70;;;;;;5087451;28;20312;-65
2024/03/15 02:14:22;;;;;;;4.05;1.80;;;11.70;90.00;;;;;;5086882;28;20032;-66
2024/03/15 02:16:47;;;;;;;3.28;1.60;;;11.60;90.50;;;;;;5087206;28;20099;-65
2024/03/15 02:19:14;;;;;;;8.03;2.13;;;11.50;91.90;;;;;;5087158;28;20060;-65
2024/03/15 02:21:43;;;;;;;6.38;1.90;;;11.50;91.20;;;;;;5085782;28;20384;-65
2024/03/15 02:24:08;;;;;;;8.90;2.00;;;11.40;91.50;;;;;;5088020;28;20483;-66
2024/03/15 02:26:36;;;;;;;3.15;1.58;;;11.40;91.10;;;;;;5088260;28;20028;-69
2024/03/15 02:29:02;;;;;;;8.32;1.80;;;11.50;90.40;;;;;;5086031;28;20438;-67
2024/03/15 02:31:29;;;;;;;5.83;1.87;;;11.40;91.10;;;;;;5086798;28;20036;-72
2024/03/15 02:33:55;;;;;;;6.80;2.13;;;11.40;91.90;;;;;;5087182;28;20085;-65
2024/03/15 02:36:21;;;;;;;3.87;2.03;;;11.30;91.80;;;;;;5087036;28;20028;-65
2024/03/15 02:38:47;;;;;;;4.80;2.10;;;11.40;91.30;;;;;;5087106;28;20105;-68
2024/03/15 02:41:16;;;;;;;5.70;1.95;;;11.40;91.40;;;;;;5086857;28;20298;-70
2024/03/15 02:43:42;;;;;;;10.77;1.65;;;11.30;91.60;;;;;;5087083;28;20032;-67
2024/03/15 02:46:08;;;;;;;6.47;1.83;;;11.40;91.00;;;;;;5089708;28;20032;-68
2024/03/15 02:48:38;;;;;;;7.05;2.10;;;11.30;91.60;;;;;;5090371;28;20063;-68
2024/03/15 02:51:04;;;;;;;9.98;2.03;;;11.40;91.40;;;;;;5090487;28;20032;-69
2024/03/15 02:53:30;;;;;;;7.50;1.73;;;11.30;91.70;;;;;;5090043;28;20013;-65
2024/03/15 02:55:56;;;;;;;7.03;1.67;;;11.30;91.00;;;;;;5090708;28;20036;-65
2024/03/15 02:58:22;;;;;;;5.20;2.05;;;11.20;91.30;;;;;;5090190;28;20487;-66
2024/03/15 03:00:47;;;;;;;6.80;2.13;;;11.20;91.20;;;;;;5090078;28;20031;-66
2024/03/15 03:03:13;;;;;;;4.80;1.70;;;11.10;91.80;;;;;;5090578;28;20051;-67
2024/03/15 03:05:39;;;;;;;3.73;1.57;;;11.20;91.00;;;;;;5089867;28;20287;-66
2024/03/15 03:08:05;;;;;;;5.00;1.67;;;11.10;91.80;;;;;;5090412;28;20404;-67
2024/03/15 03:10:31;;;;;;;5.72;1.85;;;11.10;92.10;;;;;;5090312;28;20035;-66
2024/03/15 03:12:56;;;;;;;6.18;2.08;;;11.00;91.80;;;;;;5089186;28;20040;-65
2024/03/15 03:15:22;;;;;;;3.97;1.63;;;10.90;92.10;;;;;;5089247;28;20020;-69
2024/03/15 03:17:48;;;;;;;3.63;2.00;;;11.00;91.70;;;;;;5088828;28;20867;-65
2024/03/15 03:20:20;;;;;;;4.90;2.00;;;11.00;91.50;;;;;;5089511;28;20022;-67
2024/03/15 03:22:48;;;;;;;11.18;2.58;;;11.20;91.20;;;;;;5089390;28;20028;-65
2024/03/15 03:25:15;;;;;;;3.65;1.80;;;11.30;90.40;;;;;;5089013;28;20032;-69
2024/03/15 03:27:40;;;;;;;;;;;11.20;90.80;;;;;;5087277;28;20024;-65
2024/03/15 03:30:07;;;;;;;6.63;1.90;;;11.30;90.30;;;;;;5088741;28;20111;-66
2024/03/15 03:32:32;;;;;;;;;;;11.30;90.60;;;;;;5089419;28;20145;-68
2024/03/15 03:34:58;;;;;;;4.90;1.73;;;11.20;91.00;;;;;;5089562;28;20383;-65
2024/03/15 03:37:23;;;;;;;12.23;2.20;;;11.10;90.90;;;;;;5083097;28;20085;-66
2024/03/15 03:39:49;;;;;;;5.13;1.80;;;11.00;91.50;;;;;;5072600;28;20020;-65
2024/03/15 03:42:15;;;;;;;9.33;2.00;;;11.00;91.30;;;;;;5088905;28;20134;-66
2024/03/15 03:44:41;;;;;;;6.77;2.00;;;11.20;90.50;;;;;;5089323;28;20039;-65
2024/03/15 03:47:07;;;;;;;8.57;2.95;;;11.30;90.70;;;;;;5088412;28;20036;-66
2024/03/15 03:49:33;;;;;;;7.03;2.22;;;11.30;90.50;;;;;;5088321;28;20049;-66
2024/03/15 03:51:59;;;;;;;5.50;1.80;;;11.30;90.70;;;;;;5089257;28;20431;-68
2024/03/15 03:54:24;;;;;;;5.53;1.80;;;11.30;90.30;;;;;;5088282;28;20051;-65
2024/03/15 03:56:50;;;;;;;12.00;3.33;;;11.30;90.10;;;;;;5087272;28;20032;-65
2024/03/15 03:59:16;;;;;;;6.53;1.98;;;11.20;90.40;;;;;;5089124;28;20040;-65
2024/03/15 04:01:42;;;;;;;5.23;1.67;;;11.10;90.90;;;;;;5089142;28;20399;-65
2024/03/15 04:04:07;;;;;;;11.27;2.30;;;11.00;91.10;;;;;;5087786;28;20066;-65
2024/03/15 04:06:34;;;;;;;5.00;2.00;;;11.00;92.00;;;;;;5088220;28;20024;-68
2024/03/15 04:09:00;;;;;;;6.32;1.60;;;11.00;91.30;;;;;;5087713;28;20039;-66
2024/03/15 04:11:26;;;;;;;6.22;3.47;;;11.10;91.10;;;;;;5088612;28;20032;-64
2024/03/15 04:13:54;;;;;;;8.67;2.40;;;11.10;91.30;;;;;;5088523;28;20507;-68
2024/03/15 04:16:22;;;;;;;5.88;1.90;;;11.20;90.80;;;;;;5088480;28;20032;-67
2024/03/15 04:18:48;;;;;;;8.80;2.08;;;11.30;90.50;;;;;;5088454;28;20028;-65
2024/03/15 04:21:16;;;;;;;5.60;2.15;;;11.20;90.90;;;;;;5088527;28;20031;-66
2024/03/15 04:23:42;;;;;;;4.03;1.73;;;11.20;90.60;;;;;;5087751;28;20081;-68
2024/03/15 04:26:08;;;;;;;5.45;1.77;;;11.10;91.40;;;;;;5076920;28;20021;-67
2024/03/15 04:28:34;;;;;;;4.23;2.30;;;11.20;91.10;;;;;;5080310;28;20027;-72
2024/03/15 04:31:03;;;;;;;6.15;1.98;;;11.20;90.20;;;;;;5075556;28;20083;-68
2024/03/15 04:33:29;;;;;;;10.15;2.08;;;11.10;90.90;;;;;;5078652;28;20063;-70
2024/03/15 04:35:55;;;;;;;7.47;2.40;;;10.90;91.60;;;;;;5067949;28;20077;-67
2024/03/15 04:38:20;;;;;;;10.50;2.65;;;10.90;90.90;;;;;;5077469;28;20040;-67
2024/03/15 04:40:46;;;;;;;5.73;1.47;;;10.80;91.60;;;;;;5077758;28;20533;-69
2024/03/15 04:43:11;;;;;;;13.07;2.87;;;10.70;92.50;;;;;;5078448;28;20032;-70
2024/03/15 04:45:37;;;;;;;9.70;2.37;;;10.70;91.50;;;;;;5072090;28;20524;-73
2024/03/15 04:48:05;;;;;;;8.63;2.05;;;10.70;92.20;;;;;;5076573;28;20044;-71
2024/03/15 04:50:31;;;;;;;5.78;1.65;;;10.80;92.10;;;;;;5077997;28;20024;-70
2024/03/15 04:52:56;;;;;;;5.77;2.17;;;10.90;91.70;;;;;;5080711;28;20040;-67
2024/03/15 04:55:22;;;;;;;4.05;1.75;;;10.80;91.80;;;;;;5085595;28;20107;-66
2024/03/15 04:57:48;;;;;;;4.30;1.80;;;10.80;92.10;;;;;;5077290;28;20500;-66
2024/03/15 05:00:19;;;;;;;6.40;1.97;;;11.00;91.90;;;;;;5075095;28;20412;-67
2024/03/15 05:02:48;;;;;;;3.88;1.67;;;11.00;91.30;;;;;;5070600;28;20036;-67
2024/03/15 05:05:16;;;;;;;6.82;1.83;;;11.20;90.90;;;;;;5076108;28;20033;-72
2024/03/15 05:07:43;;;;;;;6.03;1.92;;;11.30;90.60;;;;;;5073420;28;20036;-67
2024/03/15 05:10:13;;;;;;;7.07;2.20;;;11.30;90.50;;;;;;5078080;28;20025;-69
2024/03/15 05:12:40;;;;;;;7.60;1.85;;;11.20;90.70;;;;;;5075286;28;20032;-68
2024/03/15 05:15:06;;;;;;;5.80;2.03;;;11.20;91.20;;;;;;5076583;28;20114;-73
2024/03/15 05:17:31;;;;;;;7.57;2.17;;;11.00;91.90;;;;;;5080467;28;20052;-71
2024/03/15 05:19:57;;;;;;;3.77;1.80;;;11.00;91.60;;;;;;5078117;28;20024;-67
2024/03/15 05:22:27;;;;;;;4.33;1.90;;;11.00;91.60;;;;;;5077894;28;20028;-66
2024/03/15 05:24:53;;;;;;;5.97;1.98;;;11.00;91.90;;;;;;5082198;28;20496;-67
2024/03/15 05:27:18;;;;;;;7.87;2.10;;;11.10;91.70;;;;;;5080757;28;20028;-67
2024/03/15 05:29:44;;;;;;;8.27;2.13;;;11.00;92.10;;;;;;5077767;28;20721;-77
2024/03/15 05:32:09;;;;;;;6.33;2.10;;;11.00;92.30;;;;;;5078002;28;20055;-67
2024/03/15 05:34:35;;;;;;;4.17;1.73;;;10.90;92.60;;;;;;5075461;28;20032;-67
2024/03/15 05:37:01;;;;;;;6.23;2.17;;;10.90;93.00;;;;;;5071946;28;20158;-68
2024/03/15 05:39:28;;;;;;;7.20;1.88;;;10.90;92.50;;;;;;5075963;28;20032;-70
2024/03/15 05:41:54;;;;;;;5.68;2.03;;;10.90;93.00;;;;;;5078943;28;20042;-73
2024/03/15 05:44:20;;;;;;;6.30;2.25;;;10.70;93.50;;;;;;5074057;28;20028;-76
2024/03/15 05:46:45;;;;;;;5.70;1.97;;;10.70;93.70;;;;;;5081178;28;20501;-72
2024/03/15 05:49:13;;;;;;;6.47;2.27;;;10.70;93.40;;;;;;5076244;28;20033;-69
2024/03/15 05:51:39;;;;;;;5.10;1.90;;;10.70;93.80;;;;;;5077591;28;20032;-70
2024/03/15 05:54:04;;;;;;;5.10;2.13;;;10.50;95.10;;;;;;5079953;28;20131;-66
2024/03/15 05:56:30;;;;;;;6.93;2.27;;;10.40;95.00;;;;;;5077427;28;20020;-66
2024/03/15 05:58:55;;;;;;;6.37;1.90;;;10.40;94.70;;;;;;5076135;28;20032;-67
2024/03/15 06:01:21;;;;;;;5.47;2.27;;;10.50;94.30;;;;;;5075563;28;20029;-66
2024/03/15 06:03:47;;;;;;;19.53;3.90;;;10.60;94.90;;;;;;5075329;28;20066;-67
2024/03/15 06:06:12;;;;;;;4.43;2.50;;;10.40;95.10;;;;;;5076041;28;20025;-68
2024/03/15 06:08:38;;;;;;;5.43;2.83;;;10.20;96.10;;;;;;5076587;28;20028;-66
2024/03/15 06:11:04;;;;;;;9.43;2.53;;;10.20;96.10;;;;;;5074073;28;20029;-70
2024/03/15 06:13:30;;;;;;;11.90;2.97;;;10.30;96.20;;;;;;5076011;28;20082;-68
2024/03/15 06:15:56;;;;;;;11.65;3.28;;;10.30;96.20;;;;;;5076910;28;20020;-67
2024/03/15 06:18:22;;;;;;;6.80;2.77;;;10.30;96.20;;;;;;5083025;28;20433;-72
2024/03/15 06:20:47;;;;;;;6.80;2.50;;;10.40;96.40;;;;;;5083081;28;20556;-68
2024/03/15 06:23:14;;;;;;;10.47;3.07;;;10.40;96.00;;;;;;5082967;28;20070;-74
2024/03/15 06:25:43;;;;;;;7.00;2.28;;;10.50;96.20;;;;;;5075337;28;20431;-68
2024/03/15 06:28:10;;;;;;;7.70;2.22;;;10.40;96.90;;;;;;5078323;28;20508;-72
2024/03/15 06:30:44;;;;;;;6.82;2.60;;;10.50;96.40;;;;;;5079350;28;20024;-70
2024/03/15 06:33:10;;;;;;;8.68;3.17;;;10.50;96.30;;;;;;5081538;28;20035;-70
2024/03/15 06:35:36;;;;;;;11.20;2.60;;;10.60;96.70;;;;;;5082855;28;20391;-71
2024/03/15 06:38:27;;;;;;;7.78;2.88;;;10.80;97.60;;;;;;5073247;28;20051;-71
2024/03/15 06:40:56;;;;;;;5.72;2.65;;;11.00;95.10;;;;;;5079793;28;20028;-70
2024/03/15 06:43:42;;;;;;;10.43;3.10;;;11.00;95.30;;;;;;5078905;28;20040;-75
2024/03/15 06:46:23;;;;;;;6.00;2.60;;;11.10;95.90;;;;;;5078987;28;20545;-70
2024/03/15 06:48:57;;;;;;;7.93;2.95;;;11.50;94.90;;;;;;5079916;28;20044;-75
2024/03/15 06:54:12;;;;;;;16.27;3.15;;;11.90;93.40;;;;;;5080337;28;20079;-72
2024/03/15 06:56:38;;;;;;;7.28;2.72;;;11.90;93.00;;;;;;5070561;28;20139;-70
2024/03/15 06:59:09;;;;;;;5.72;2.80;;;11.80;93.30;;;;;;5075104;28;20078;-73
2024/03/15 07:01:35;;;;;;;13.57;2.38;;;11.60;93.30;;;;;;5073286;28;20093;-77
2024/03/15 07:04:01;;;;;;;7.20;2.88;;;11.50;93.60;;;;;;5080598;28;20024;-73
2024/03/15 07:06:30;;;;;;;10.23;2.63;;;11.40;93.20;;;;;;5081960;28;20024;-75
2024/03/15 07:08:57;;;;;;;7.15;2.70;;;11.40;93.40;;;;;;5082619;28;20028;-71
2024/03/15 07:11:30;;;;;;;8.30;2.83;;;11.30;93.70;;;;;;5075289;28;20475;-75
2024/03/15 07:13:56;;;;;;;13.23;3.22;;;11.40;93.90;;;;;;5080392;28;20781;-75
2024/03/15 07:16:23;;;;;;;10.95;3.35;;;11.70;93.70;;;;;;5078355;28;20065;-68
2024/03/15 07:18:49;;;;;;;7.93;3.50;;;13.20;89.60;;;;;;5078132;28;20065;-71
2024/03/15 07:21:16;;;;;;;10.63;3.73;;;12.60;90.80;;;;;;5079791;28;20081;-69
2024/03/15 07:23:42;;;;;;;9.93;3.05;;;12.40;91.20;;;;;;5076484;28;20031;-68
2024/03/15 07:26:10;;;;;;;4.90;2.77;;;12.50;92.00;;;;;;5076814;28;20028;-68
2024/03/15 07:28:38;;;;;;;8.95;3.10;;;12.40;91.30;;;;;;5077020;28;20024;-70
2024/03/15 07:31:04;;;;;;;9.68;3.47;;;12.30;91.40;;;;;;5077224;28;20036;-67
2024/03/15 07:33:30;;;;;;;13.82;3.22;;;12.50;92.40;;;;;;5077798;28;20016;-73
2024/03/15 07:36:01;;;;;;;15.63;5.40;;;12.70;90.70;;;;;;5078254;28;20493;-68
2024/03/15 07:38:27;;;;;;;12.15;4.80;;;12.50;90.90;;;;;;5086319;28;20310;-68
2024/03/15 07:40:54;;;;;;;14.48;3.92;;;12.50;92.30;;;;;;5076305;28;20522;-70
2024/03/15 07:43:19;;;;;;;8.82;3.20;;;12.50;91.70;;;;;;5075034;28;20079;-68
2024/03/15 07:45:47;;;;;;;12.97;4.50;;;12.50;91.90;;;;;;5077499;28;20048;-68
2024/03/15 07:48:13;;;;;;;8.15;3.97;;;12.60;91.20;;;;;;5076027;28;20040;-68
2024/03/15 07:50:41;;;;;;;9.65;4.15;;;12.80;91.30;;;;;;5078923;28;20035;-67
2024/03/15 07:53:11;;;;;;;11.40;4.70;;;12.90;91.60;;;;;;5078578;28;20466;-68
2024/03/15 07:55:37;;;;;;;8.23;3.47;;;13.10;91.00;;;;;;5080337;28;20047;-68
2024/03/15 07:58:03;;;;;;;12.50;3.07;;;13.00;90.50;;;;;;5074889;28;20097;-68
2024/03/15 08:00:29;;;;;;;9.88;3.03;;;12.90;90.50;;;;;;5078338;28;20105;-69
2024/03/15 08:02:56;;;;;;;;;;;13.10;90.40;;;;;;5079961;28;20028;-68
2024/03/15 08:05:24;;;;;;;6.80;3.10;;;13.00;90.30;;;;;;5078157;28;20592;-70
2024/03/15 08:07:50;;;;;;;8.23;3.17;;;13.00;89.80;;;;;;5076913;28;20021;-72
2024/03/15 08:10:17;;;;;;;9.77;3.75;;;13.30;89.70;;;;;;5077356;28;20032;-68
2024/03/15 08:12:43;;;;;;;11.30;3.03;;;14.10;89.20;;;;;;5079603;28;20040;-68
2024/03/15 08:15:09;;;;;;;5.43;3.03;;;14.10;86.70;;;;;;5079742;28;20507;-68
2024/03/15 08:17:36;;;;;;;8.68;3.20;;;16.60;79.70;;;;;;5075805;28;20066;-68
2024/03/15 08:20:11;;;;;;;9.85;3.78;;;17.50;73.80;;;;;;5075780;28;20032;-69
2024/03/15 08:22:39;;;;;;;12.40;3.67;;;18.40;72.40;;;;;;5075860;28;20097;-68
2024/03/15 08:25:06;;;;;;;8.82;2.80;;;18.30;74.10;;;;;;5071248;28;20025;-69
2024/03/15 08:27:33;;;;;;;8.05;2.75;;;16.90;74.30;;;;;;5075520;28;20432;-68
2024/03/15 08:30:00;;;;;;;;;;;16.00;76.40;;;;;;5073330;28;20032;-70
2024/03/15 08:32:29;;;;;;;12.20;3.40;;;15.40;77.20;;;;;;5076786;28;19912;-68
2024/03/15 08:34:57;;;;;;;14.10;3.47;;;15.20;80.30;;;;;;5080746;28;20577;-72
2024/03/15 08:37:26;;;;;;;9.23;3.08;;;14.90;80.80;;;;;;5072900;28;20030;-67
2024/03/15 08:39:55;;;;;;;5.90;2.55;;;14.80;81.30;;;;;;5078412;28;20147;-67
2024/03/15 08:42:20;;;;;;;6.57;2.67;;;15.00;80.50;;;;;;5075442;28;20028;-68
2024/03/15 08:44:46;;;;;;;6.50;3.10;;;14.70;81.80;;;;;;5076475;28;20103;-69
2024/03/15 08:47:12;;;;;;;11.48;3.30;;;14.90;82.60;;;;;;5081496;28;20028;-67
2024/03/15 08:49:38;;;;;;;5.25;2.53;;;14.50;82.90;;;;;;5083361;28;20089;-67
2024/03/15 08:52:04;;;;;;;8.63;3.57;;;14.80;84.10;;;;;;5079015;28;20055;-71
2024/03/15 08:54:33;;;;;;;6.95;2.50;;;14.80;83.50;;;;;;5078646;28;20025;-73
2024/03/15 08:57:02;;;;;;;5.45;3.63;;;14.90;83.10;;;;;;5080882;28;20066;-71
2024/03/15 08:59:28;;;;;;;10.23;3.15;;;15.60;81.30;;;;;;5078431;28;20040;-74
2024/03/15 09:01:58;;;;;;;8.25;2.85;;;16.10;79.30;;;;;;5069884;28;20033;-73
2024/03/15 09:04:24;;;;;;;7.80;2.92;;;16.30;77.70;;;;;;5075423;28;20500;-75
2024/03/15 09:06:51;;;;;;;7.35;3.28;;;19.60;71.10;;;;;;5076862;28;20916;-74
2024/03/15 09:09:21;;;;;;;;;;;22.20;63.30;;;;;;5078807;28;20033;-76
2024/03/15 09:11:46;;;;;;;6.60;2.45;;;23.30;61.90;;;;;;5076152;28;19911;-70
2024/03/15 09:14:17;;;;;;;7.00;2.65;;;20.30;62.80;;;;;;5080819;28;20031;-76
2024/03/15 09:16:45;;;;;;;8.43;2.75;;;18.60;70.60;;;;;;5071599;28;20039;-76
2024/03/15 09:19:11;;;;;;;7.57;3.30;;;18.30;72.70;;;;;;5088839;28;20032;-70
2024/03/15 09:21:40;;;;;;;11.00;2.90;;;18.20;73.10;;;;;;5070660;28;20035;-78
2024/03/15 09:24:07;;;;;;;15.05;3.38;;;18.10;74.80;;;;;;5080266;28;20544;-76
2024/03/15 09:26:33;;;;;;;5.80;2.72;;;17.90;74.50;;;;;;5065847;28;20024;-76
2024/03/15 09:28:59;;;;;;;10.00;3.27;;;17.40;75.20;;;;;;5080028;28;20015;-73
2024/03/15 09:31:24;;;;;;;11.63;2.87;;;17.00;76.80;;;;;;5077548;28;20053;-79
2024/03/15 09:33:51;;;;;;;10.50;3.40;;;16.80;79.10;;;;;;5077220;28;20043;-78
2024/03/15 09:36:18;;;;;;;5.63;3.05;;;16.80;78.10;;;;;;5080010;28;20450;-79
2024/03/15 09:38:47;;;;;;;12.65;2.70;;;16.80;77.90;;;;;;5073988;28;20113;-78
2024/03/15 09:41:16;;;;;;;7.93;2.88;;;16.80;78.20;;;;;;5075526;28;20673;-71
2024/03/15 09:43:45;;;;;;;10.45;3.35;;;17.00;76.40;;;;;;5069706;28;20131;-71
2024/03/15 09:46:16;;;;;;;6.50;2.65;;;16.80;77.70;;;;;;5074248;28;20064;-75
2024/03/15 09:48:44;;;;;;;7.65;2.88;;;16.50;78.40;;;;;;5080786;28;20447;-76
2024/03/15 09:51:16;;;;;;;7.00;2.83;;;16.40;78.30;;;;;;5078444;28;20027;-74
2024/03/15 09:53:45;;;;;;;11.65;3.45;;;16.30;80.10;;;;;;5079826;28;20431;-71
2024/03/15 09:56:16;;;;;;;5.47;2.72;;;16.00;79.40;;;;;;5080343;28;20116;-70
2024/03/15 09:58:42;;;;;;;12.02;3.92;;;16.10;81.60;;;;;;5079335;28;20119;-75
2024/03/15 10:01:15;;;;;;;8.15;2.88;;;16.00;80.10;;;;;;5076092;28;20051;-72
2024/03/15 10:03:42;;;;;;;13.20;4.07;;;16.00;82.30;;;;;;5076876;28;20032;-72
2024/03/15 10:06:09;;;;;;;10.63;4.53;;;15.60;81.00;;;;;;5078579;28;20064;-74
2024/03/15 10:08:36;;;;;;;11.15;6.05;;;15.70;83.80;;;;;;5077792;28;20479;-75
2024/03/15 10:11:02;;;;;;;14.75;4.72;;;15.50;82.00;;;;;;5080341;28;20020;-73
2024/03/15 10:13:29;;;;;;;10.85;5.38;;;15.40;81.90;;;;;;5080547;28;20030;-73
2024/03/15 10:15:55;;;;;;;10.35;5.70;;;15.60;82.80;;;;;;5080075;28;20032;-73
2024/03/15 10:18:20;;;;;;;17.63;5.63;;;15.70;83.80;;;;;;5080677;28;20507;-72
2024/03/15 10:20:47;;;;;;;8.57;4.73;;;15.60;87.60;;;;;;5081583;28;20020;-74
2024/03/15 10:23:13;;;;;;;9.48;4.68;;;15.40;88.30;;;;;;5081685;28;20039;-74
2024/03/15 10:25:38;;;;;;;23.47;10.47;;;15.10;91.00;;;;;;5076400;28;20032;-72
2024/03/15 10:28:09;;;;;;;16.65;6.68;;;14.90;90.20;;;;;;5077140;28;20033;-69
2024/03/15 10:30:36;;;;;;;9.18;5.45;;;14.70;93.20;;;;;;5072756;28;20067;-70
2024/03/15 10:33:03;;;;;;;10.57;4.82;;;14.50;96.40;;;;;;5077198;28;20025;-73
2024/03/15 10:35:29;;;;;;;13.20;5.40;;;14.30;95.00;;;;;;5076418;28;20062;-70
2024/03/15 10:37:55;;;;;;;17.17;7.20;;;14.30;96.90;;;;;;5077288;28;20111;-70
2024/03/15 10:40:25;;;;;;;17.80;6.72;;;14.70;94.20;;;;;;5078269;28;20344;-70
2024/03/15 10:43:02;;;;;;;15.75;6.32;;;15.00;94.90;;;;;;5081810;28;20841;-71
2024/03/15 10:45:28;;;;;;;12.43;5.60;;;15.10;92.40;;;;;;5075599;28;20047;-72
2024/03/15 10:47:55;;;;;;;;;;;15.00;96.40;;;;;;5081485;28;20274;-72
2024/03/15 10:50:26;;;;;;;7.22;4.60;;;15.00;94.20;;;;;;5079344;28;19969;-71
2024/03/15 10:52:52;;;;;;;12.95;5.55;;;14.90;93.30;;;;;;5080512;28;20024;-70
2024/03/15 10:55:21;;;;;;;31.42;14.13;;;14.90;92.80;;;;;;5084631;28;20481;-72
2024/03/15 10:57:48;;;;;;;12.80;6.90;;;14.90;91.40;;;;;;5080506;28;20069;-71
2024/03/15 11:00:17;;;;;;;14.77;5.63;;;14.60;91.80;;;;;;5081758;28;20055;-72
2024/03/15 11:02:44;;;;;;;34.53;14.65;;;14.70;94.80;;;;;;5079241;28;20035;-70
2024/03/15 11:05:21;;;;;;;;;;;15.00;94.10;;;;;;5083703;28;20021;-72
2024/03/15 11:07:49;;;;;;;10.20;6.15;;;15.60;92.90;;;;;;5082024;28;19962;-71
2024/03/15 11:10:20;;;;;;;12.18;4.93;;;16.20;93.90;;;;;;5077743;28;20504;-73
2024/03/15 11:12:53;;;;;;;11.65;4.65;;;16.50;93.70;;;;;;5081180;28;20067;-68
2024/03/15 11:15:20;;;;;;;12.68;4.47;;;16.60;92.70;;;;;;5077758;28;20511;-72
2024/03/15 11:18:06;;;;;;;6.28;3.63;;;16.50;93.20;;;;;;5082109;28;20039;-73
2024/03/15 11:20:48;;;;;;;12.40;4.57;;;16.90;91.20;;;;;;5073852;28;20021;-73
2024/03/15 11:23:16;;;;;;;8.02;3.85;;;18.20;91.60;;;;;;5080490;28;20396;-71
2024/03/15 11:25:54;;;;;;;14.18;4.35;;;17.70;87.70;;;;;;5075894;28;20032;-71
2024/03/15 11:28:21;;;;;;;16.25;4.93;;;17.20;91.10;;;;;;5084590;28;20060;-72
2024/03/15 11:30:47;;;;;;;10.23;5.20;;;16.70;92.10;;;;;;5080071;28;20032;-72
2024/03/15 11:33:13;;;;;;;15.00;6.28;;;16.30;91.70;;;;;;5080272;28;20059;-72
2024/03/15 11:35:40;;;;;;;18.13;7.00;;;16.10;93.10;;;;;;5071854;28;20416;-73
2024/03/15 11:38:14;;;;;;;16.08;6.90;;;15.60;93.40;;;;;;5075628;28;20165;-72
2024/03/15 11:40:40;;;;;;;13.98;7.07;;;15.50;94.10;;;;;;5077351;28;20035;-72
2024/03/15 11:43:09;;;;;;;;;;;15.40;94.60;;;;;;5075744;28;20161;-73
2024/03/15 11:45:39;;;;;;;9.60;5.43;;;15.60;97.00;;;;;;5079378;28;19958;-71
2024/03/15 11:48:24;;;;;;;11.38;6.18;;;16.00;96.80;;;;;;5079059;28;20154;-72
2024/03/15 11:50:55;;;;;;;8.18;5.32;;;16.20;94.60;;;;;;5077574;28;20039;-71
2024/03/15 11:53:22;;;;;;;15.68;5.75;;;16.20;93.70;;;;;;5079371;28;20127;-72
2024/03/15 11:55:49;;;;;;;13.82;5.13;;;16.00;93.70;;;;;;5081731;28;20462;-73
2024/03/15 11:58:19;;;;;;;12.93;4.93;;;15.80;95.00;;;;;;5077430;28;20046;-71
2024/03/15 12:00:52;;;;;;;14.25;5.35;;;16.10;94.20;;;;;;5078790;28;20093;-69
2024/03/15 12:03:24;;;;;;;12.23;4.75;;;16.60;94.80;;;;;;5081013;28;20026;-71
2024/03/15 12:05:50;;;;;;;16.08;4.97;;;16.60;93.40;;;;;;5074897;28;20037;-71
2024/03/15 12:08:23;;;;;;;;;;;17.40;93.70;;;;;;5079513;28;20028;-70
2024/03/15 12:10:51;;;;;;;13.75;5.55;;;17.30;90.70;;;;;;5079139;28;19955;-72
2024/03/15 12:13:34;;;;;;;10.93;5.00;;;17.40;92.60;;;;;;5077367;28;20117;-72
2024/03/15 12:16:00;;;;;;;14.85;5.30;;;17.90;92.00;;;;;;5078161;28;20028;-71
2024/03/15 12:18:26;;;;;;;6.38;3.33;;;17.70;91.20;;;;;;5076755;28;20395;-72
2024/03/15 12:20:52;;;;;;;6.82;3.25;;;17.20;90.50;;;;;;5078123;28;20038;-71
2024/03/15 12:23:20;;;;;;;14.13;4.20;;;17.20;90.10;;;;;;5079534;28;20089;-72
2024/03/15 12:25:46;;;;;;;14.07;4.38;;;17.90;90.40;;;;;;5070485;28;20487;-70
2024/03/15 12:28:13;;;;;;;8.60;3.50;;;18.60;91.40;;;;;;5075832;28;20775;-69
2024/03/15 12:30:42;;;;;;;14.27;2.83;;;18.70;87.20;;;;;;5078177;28;20070;-69
2024/03/15 12:33:09;;;;;;;6.93;3.45;;;18.60;84.90;;;;;;5075217;28;20484;-70
2024/03/15 12:35:35;;;;;;;15.93;3.53;;;18.50;87.60;;;;;;5081242;28;20048;-68
2024/03/15 12:38:02;;;;;;;6.32;3.50;;;18.50;83.90;;;;;;5072385;28;20071;-68
2024/03/15 12:40:28;;;;;;;5.18;3.00;;;18.00;82.40;;;;;;5076512;28;20488;-68
2024/03/15 12:42:54;;;;;;;6.97;2.33;;;17.50;84.00;;;;;;5077575;28;20032;-71
2024/03/15 12:45:20;;;;;;;5.13;3.27;;;18.00;88.30;;;;;;5078043;28;20282;-69
2024/03/15 12:47:45;;;;;;;8.80;2.90;;;18.10;86.70;;;;;;5075872;28;20047;-68